sensor_id;sensor_type;location;lat;lon;timestamp;P1;durP1;ratioP1;P2;durP2;ratioP2
84993;SDS011;75309;44.830;20.460;2024-02-15T00:00:08;34.30;;;18.50;;
84993;SDS011;75309;44.830;20.460;2024-02-15T00:02:56;35.40;;;18.90;;
84993;SDS011;75309;44.830;20.460;2024-02-15T00:05:26;32.20;;;17.20;;
84993;SDS011;75309;44.830;20.460;2024-02-15T00:07:54;38.20;;;18.20;;
84993;SDS011;75309;44.830;20.460;2024-02-15T00:10:22;41.00;;;19.20;;
84993;SDS011;75309;44.830;20.460;2024-02-15T00:12:52;36.30;;;19.60;;
84993;SDS011;75309;44.830;20.460;2024-02-15T00:15:20;38.30;;;19.50;;
84993;SDS011;75309;44.830;20.460;2024-02-15T00:17:48;32.20;;;17.70;;
84993;SDS011;75309;44.830;20.460;2024-02-15T00:20:17;33.10;;;17.10;;
84993;SDS011;75309;44.830;20.460;2024-02-15T00:22:45;34.10;;;17.70;;
84993;SDS011;75309;44.830;20.460;2024-02-15T00:25:15;35.20;;;18.50;;
84993;SDS011;75309;44.830;20.460;2024-02-15T00:30:13;37.40;;;17.50;;
84993;SDS011;75309;44.830;20.460;2024-02-15T00:32:42;34.00;;;16.40;;
84993;SDS011;75309;44.830;20.460;2024-02-15T00:35:10;34.40;;;17.40;;
84993;SDS011;75309;44.830;20.460;2024-02-15T00:37:42;32.50;;;16.40;;
84993;SDS011;75309;44.830;20.460;2024-02-15T00:40:10;32.40;;;17.70;;
84993;SDS011;75309;44.830;20.460;2024-02-15T00:42:38;33.60;;;17.80;;
84993;SDS011;75309;44.830;20.460;2024-02-15T00:45:07;37.20;;;19.30;;
84993;SDS011;75309;44.830;20.460;2024-02-15T00:47:36;32.70;;;18.90;;
84993;SDS011;75309;44.830;20.460;2024-02-15T00:50:06;32.70;;;16.10;;
84993;SDS011;75309;44.830;20.460;2024-02-15T00:52:36;39.10;;;20.50;;
84993;SDS011;75309;44.830;20.460;2024-02-15T00:55:04;39.90;;;21.10;;
84993;SDS011;75309;44.830;20.460;2024-02-15T01:00:00;34.10;;;18.70;;
84993;SDS011;75309;44.830;20.460;2024-02-15T01:02:30;36.00;;;19.30;;
84993;SDS011;75309;44.830;20.460;2024-02-15T01:04:58;41.60;;;19.60;;
84993;SDS011;75309;44.830;20.460;2024-02-15T01:07:27;34.90;;;18.30;;
84993;SDS011;75309;44.830;20.460;2024-02-15T01:09:55;31.90;;;16.80;;
84993;SDS011;75309;44.830;20.460;2024-02-15T01:12:23;33.20;;;16.90;;
84993;SDS011;75309;44.830;20.460;2024-02-15T01:14:51;31.70;;;17.40;;
84993;SDS011;75309;44.830;20.460;2024-02-15T01:17:19;31.60;;;15.90;;
84993;SDS011;75309;44.830;20.460;2024-02-15T01:19:47;30.50;;;15.80;;
84993;SDS011;75309;44.830;20.460;2024-02-15T01:22:16;33.30;;;16.10;;
84993;SDS011;75309;44.830;20.460;2024-02-15T01:24:45;32.50;;;17.40;;
84993;SDS011;75309;44.830;20.460;2024-02-15T01:27:16;31.80;;;16.90;;
84993;SDS011;75309;44.830;20.460;2024-02-15T01:29:44;28.20;;;15.50;;
84993;SDS011;75309;44.830;20.460;2024-02-15T01:32:13;29.10;;;16.30;;
84993;SDS011;75309;44.830;20.460;2024-02-15T01:34:41;32.40;;;14.80;;
84993;SDS011;75309;44.830;20.460;2024-02-15T01:37:10;29.00;;;14.60;;
84993;SDS011;75309;44.830;20.460;2024-02-15T01:39:38;27.70;;;14.70;;
84993;SDS011;75309;44.830;20.460;2024-02-15T01:42:06;26.40;;;15.00;;
84993;SDS011;75309;44.830;20.460;2024-02-15T01:44:34;28.00;;;14.30;;
84993;SDS011;75309;44.830;20.460;2024-02-15T01:47:04;29.20;;;15.50;;
84993;SDS011;75309;44.830;20.460;2024-02-15T01:49:33;29.10;;;14.70;;
84993;SDS011;75309;44.830;20.460;2024-02-15T01:52:02;30.90;;;15.40;;
84993;SDS011;75309;44.830;20.460;2024-02-15T01:54:33;30.60;;;15.30;;
84993;SDS011;75309;44.830;20.460;2024-02-15T01:57:03;25.50;;;14.40;;
84993;SDS011;75309;44.830;20.460;2024-02-15T01:59:32;27.00;;;14.00;;
84993;SDS011;75309;44.830;20.460;2024-02-15T02:02:00;31.00;;;15.00;;
84993;SDS011;75309;44.830;20.460;2024-02-15T02:04:31;30.00;;;15.40;;
84993;SDS011;75309;44.830;20.460;2024-02-15T02:06:59;30.90;;;16.80;;
84993;SDS011;75309;44.830;20.460;2024-02-15T02:09:28;32.60;;;16.00;;
84993;SDS011;75309;44.830;20.460;2024-02-15T02:11:55;30.50;;;15.20;;
84993;SDS011;75309;44.830;20.460;2024-02-15T02:14:23;29.60;;;15.80;;
84993;SDS011;75309;44.830;20.460;2024-02-15T02:16:51;33.80;;;17.40;;
84993;SDS011;75309;44.830;20.460;2024-02-15T02:19:21;32.50;;;16.50;;
84993;SDS011;75309;44.830;20.460;2024-02-15T02:21:50;27.40;;;14.50;;
84993;SDS011;75309;44.830;20.460;2024-02-15T02:24:21;28.00;;;14.30;;
84993;SDS011;75309;44.830;20.460;2024-02-15T02:26:50;27.40;;;14.00;;
84993;SDS011;75309;44.830;20.460;2024-02-15T02:29:21;27.10;;;14.60;;
84993;SDS011;75309;44.830;20.460;2024-02-15T02:31:49;28.60;;;14.30;;
84993;SDS011;75309;44.830;20.460;2024-02-15T02:34:17;28.90;;;15.00;;
84993;SDS011;75309;44.830;20.460;2024-02-15T02:36:47;30.40;;;14.60;;
84993;SDS011;75309;44.830;20.460;2024-02-15T02:41:44;25.40;;;12.20;;
84993;SDS011;75309;44.830;20.460;2024-02-15T02:44:12;27.10;;;14.20;;
84993;SDS011;75309;44.830;20.460;2024-02-15T02:46:41;27.10;;;13.60;;
84993;SDS011;75309;44.830;20.460;2024-02-15T02:49:09;32.10;;;14.20;;
84993;SDS011;75309;44.830;20.460;2024-02-15T02:51:37;27.10;;;13.80;;
84993;SDS011;75309;44.830;20.460;2024-02-15T02:54:05;29.40;;;13.90;;
84993;SDS011;75309;44.830;20.460;2024-02-15T02:56:34;27.70;;;14.30;;
84993;SDS011;75309;44.830;20.460;2024-02-15T02:59:02;26.50;;;13.90;;
84993;SDS011;75309;44.830;20.460;2024-02-15T03:01:31;25.70;;;12.40;;
84993;SDS011;75309;44.830;20.460;2024-02-15T03:04:00;26.90;;;14.60;;
84993;SDS011;75309;44.830;20.460;2024-02-15T03:06:29;25.60;;;13.70;;
84993;SDS011;75309;44.830;20.460;2024-02-15T03:08:57;27.00;;;13.90;;
84993;SDS011;75309;44.830;20.460;2024-02-15T03:11:25;27.40;;;13.40;;
84993;SDS011;75309;44.830;20.460;2024-02-15T03:13:53;27.70;;;13.40;;
84993;SDS011;75309;44.830;20.460;2024-02-15T03:16:22;30.30;;;15.10;;
84993;SDS011;75309;44.830;20.460;2024-02-15T03:18:52;27.20;;;14.90;;
84993;SDS011;75309;44.830;20.460;2024-02-15T03:21:21;26.50;;;12.90;;
84993;SDS011;75309;44.830;20.460;2024-02-15T03:23:49;26.90;;;14.10;;
84993;SDS011;75309;44.830;20.460;2024-02-15T03:26:21;25.70;;;13.70;;
84993;SDS011;75309;44.830;20.460;2024-02-15T03:28:58;26.20;;;14.40;;
84993;SDS011;75309;44.830;20.460;2024-02-15T03:31:26;29.60;;;15.10;;
84993;SDS011;75309;44.830;20.460;2024-02-15T03:33:54;25.60;;;14.80;;
84993;SDS011;75309;44.830;20.460;2024-02-15T03:36:22;26.90;;;15.00;;
84993;SDS011;75309;44.830;20.460;2024-02-15T03:38:50;30.10;;;14.90;;
84993;SDS011;75309;44.830;20.460;2024-02-15T03:41:22;31.90;;;16.40;;
84993;SDS011;75309;44.830;20.460;2024-02-15T03:43:50;25.80;;;14.70;;
84993;SDS011;75309;44.830;20.460;2024-02-15T03:46:18;31.50;;;15.40;;
84993;SDS011;75309;44.830;20.460;2024-02-15T03:48:46;27.10;;;13.60;;
84993;SDS011;75309;44.830;20.460;2024-02-15T03:51:17;28.00;;;13.10;;
84993;SDS011;75309;44.830;20.460;2024-02-15T03:53:50;24.30;;;14.40;;
84993;SDS011;75309;44.830;20.460;2024-02-15T03:56:20;25.30;;;14.10;;
84993;SDS011;75309;44.830;20.460;2024-02-15T03:58:51;28.20;;;14.90;;
84993;SDS011;75309;44.830;20.460;2024-02-15T04:01:19;26.40;;;14.10;;
84993;SDS011;75309;44.830;20.460;2024-02-15T04:03:47;26.30;;;13.10;;
84993;SDS011;75309;44.830;20.460;2024-02-15T04:06:15;26.60;;;14.10;;
84993;SDS011;75309;44.830;20.460;2024-02-15T04:11:12;22.80;;;11.50;;
84993;SDS011;75309;44.830;20.460;2024-02-15T04:13:41;23.30;;;12.60;;
84993;SDS011;75309;44.830;20.460;2024-02-15T04:16:10;27.60;;;12.90;;
84993;SDS011;75309;44.830;20.460;2024-02-15T04:18:38;26.10;;;12.90;;
84993;SDS011;75309;44.830;20.460;2024-02-15T04:21:06;22.70;;;12.40;;
84993;SDS011;75309;44.830;20.460;2024-02-15T04:23:35;24.40;;;12.80;;
84993;SDS011;75309;44.830;20.460;2024-02-15T04:26:03;25.70;;;13.10;;
84993;SDS011;75309;44.830;20.460;2024-02-15T04:28:31;28.50;;;14.70;;
84993;SDS011;75309;44.830;20.460;2024-02-15T04:31:01;27.60;;;13.30;;
84993;SDS011;75309;44.830;20.460;2024-02-15T04:33:29;26.70;;;12.90;;
84993;SDS011;75309;44.830;20.460;2024-02-15T04:35:57;25.70;;;13.80;;
84993;SDS011;75309;44.830;20.460;2024-02-15T04:38:26;28.60;;;14.30;;
84993;SDS011;75309;44.830;20.460;2024-02-15T04:40:54;29.20;;;14.40;;
84993;SDS011;75309;44.830;20.460;2024-02-15T04:43:22;26.60;;;13.70;;
84993;SDS011;75309;44.830;20.460;2024-02-15T04:45:53;27.20;;;13.50;;
84993;SDS011;75309;44.830;20.460;2024-02-15T04:48:21;28.50;;;14.10;;
84993;SDS011;75309;44.830;20.460;2024-02-15T04:50:51;24.90;;;12.80;;
84993;SDS011;75309;44.830;20.460;2024-02-15T04:53:21;26.10;;;13.80;;
84993;SDS011;75309;44.830;20.460;2024-02-15T04:55:49;27.50;;;13.90;;
84993;SDS011;75309;44.830;20.460;2024-02-15T04:58:17;27.70;;;14.40;;
84993;SDS011;75309;44.830;20.460;2024-02-15T05:00:45;28.10;;;14.50;;
84993;SDS011;75309;44.830;20.460;2024-02-15T05:03:14;26.40;;;13.60;;
84993;SDS011;75309;44.830;20.460;2024-02-15T05:05:42;26.50;;;13.90;;
84993;SDS011;75309;44.830;20.460;2024-02-15T05:08:11;27.60;;;13.60;;
84993;SDS011;75309;44.830;20.460;2024-02-15T05:10:42;24.30;;;14.00;;
84993;SDS011;75309;44.830;20.460;2024-02-15T05:13:12;28.40;;;14.10;;
84993;SDS011;75309;44.830;20.460;2024-02-15T05:15:41;29.30;;;14.20;;
84993;SDS011;75309;44.830;20.460;2024-02-15T05:18:10;27.40;;;13.70;;
84993;SDS011;75309;44.830;20.460;2024-02-15T05:20:39;29.70;;;15.20;;
84993;SDS011;75309;44.830;20.460;2024-02-15T05:23:16;28.00;;;14.60;;
84993;SDS011;75309;44.830;20.460;2024-02-15T05:25:47;25.30;;;14.20;;
84993;SDS011;75309;44.830;20.460;2024-02-15T05:28:15;28.20;;;14.80;;
84993;SDS011;75309;44.830;20.460;2024-02-15T05:30:46;25.20;;;13.20;;
84993;SDS011;75309;44.830;20.460;2024-02-15T05:33:15;27.00;;;14.00;;
84993;SDS011;75309;44.830;20.460;2024-02-15T05:35:44;27.90;;;14.30;;
84993;SDS011;75309;44.830;20.460;2024-02-15T05:38:18;29.30;;;14.40;;
84993;SDS011;75309;44.830;20.460;2024-02-15T05:40:47;26.00;;;13.10;;
84993;SDS011;75309;44.830;20.460;2024-02-15T05:43:19;26.30;;;13.90;;
84993;SDS011;75309;44.830;20.460;2024-02-15T05:45:51;27.50;;;14.70;;
84993;SDS011;75309;44.830;20.460;2024-02-15T05:48:26;27.90;;;14.30;;
84993;SDS011;75309;44.830;20.460;2024-02-15T05:50:56;28.30;;;14.80;;
84993;SDS011;75309;44.830;20.460;2024-02-15T05:53:29;26.20;;;14.30;;
84993;SDS011;75309;44.830;20.460;2024-02-15T05:55:59;27.80;;;14.60;;
84993;SDS011;75309;44.830;20.460;2024-02-15T05:58:30;28.20;;;14.50;;
84993;SDS011;75309;44.830;20.460;2024-02-15T06:00:59;26.90;;;14.00;;
84993;SDS011;75309;44.830;20.460;2024-02-15T06:03:30;29.50;;;14.20;;
84993;SDS011;75309;44.830;20.460;2024-02-15T06:06:19;22.90;;;12.90;;
84993;SDS011;75309;44.830;20.460;2024-02-15T06:08:49;29.10;;;14.10;;
84993;SDS011;75309;44.830;20.460;2024-02-15T06:11:21;25.70;;;13.70;;
84993;SDS011;75309;44.830;20.460;2024-02-15T06:13:54;26.30;;;13.40;;
84993;SDS011;75309;44.830;20.460;2024-02-15T06:16:22;27.60;;;14.50;;
84993;SDS011;75309;44.830;20.460;2024-02-15T06:18:51;30.30;;;14.70;;
84993;SDS011;75309;44.830;20.460;2024-02-15T06:21:20;27.80;;;14.70;;
84993;SDS011;75309;44.830;20.460;2024-02-15T06:23:57;25.60;;;13.60;;
84993;SDS011;75309;44.830;20.460;2024-02-15T06:26:27;26.50;;;15.20;;
84993;SDS011;75309;44.830;20.460;2024-02-15T06:29:01;29.20;;;14.20;;
84993;SDS011;75309;44.830;20.460;2024-02-15T06:31:48;26.70;;;15.20;;
84993;SDS011;75309;44.830;20.460;2024-02-15T06:34:37;27.50;;;14.20;;
84993;SDS011;75309;44.830;20.460;2024-02-15T06:37:35;28.90;;;14.30;;
84993;SDS011;75309;44.830;20.460;2024-02-15T06:40:25;30.80;;;15.80;;
84993;SDS011;75309;44.830;20.460;2024-02-15T06:42:55;29.60;;;14.10;;
84993;SDS011;75309;44.830;20.460;2024-02-15T06:45:26;28.80;;;14.50;;
84993;SDS011;75309;44.830;20.460;2024-02-15T06:47:57;31.30;;;15.90;;
84993;SDS011;75309;44.830;20.460;2024-02-15T06:50:28;31.50;;;15.70;;
84993;SDS011;75309;44.830;20.460;2024-02-15T06:52:58;28.10;;;14.60;;
84993;SDS011;75309;44.830;20.460;2024-02-15T06:55:26;27.10;;;13.80;;
84993;SDS011;75309;44.830;20.460;2024-02-15T06:57:54;27.00;;;13.30;;
84993;SDS011;75309;44.830;20.460;2024-02-15T07:02:52;21.30;;;12.30;;
84993;SDS011;75309;44.830;20.460;2024-02-15T07:05:21;26.80;;;13.20;;
84993;SDS011;75309;44.830;20.460;2024-02-15T07:07:51;23.10;;;13.00;;
84993;SDS011;75309;44.830;20.460;2024-02-15T07:10:19;31.00;;;14.40;;
84993;SDS011;75309;44.830;20.460;2024-02-15T07:12:49;30.60;;;13.50;;
84993;SDS011;75309;44.830;20.460;2024-02-15T07:15:17;29.00;;;14.10;;
84993;SDS011;75309;44.830;20.460;2024-02-15T07:17:45;29.90;;;15.90;;
84993;SDS011;75309;44.830;20.460;2024-02-15T07:20:14;30.60;;;15.20;;
84993;SDS011;75309;44.830;20.460;2024-02-15T07:22:45;31.70;;;15.70;;
84993;SDS011;75309;44.830;20.460;2024-02-15T07:25:13;28.20;;;14.40;;
84993;SDS011;75309;44.830;20.460;2024-02-15T07:27:44;23.70;;;11.90;;
84993;SDS011;75309;44.830;20.460;2024-02-15T07:30:14;20.60;;;11.40;;
84993;SDS011;75309;44.830;20.460;2024-02-15T07:32:47;21.00;;;10.30;;
84993;SDS011;75309;44.830;20.460;2024-02-15T07:35:15;20.00;;;10.30;;
84993;SDS011;75309;44.830;20.460;2024-02-15T07:37:54;21.90;;;11.20;;
84993;SDS011;75309;44.830;20.460;2024-02-15T07:40:25;20.30;;;9.80;;
84993;SDS011;75309;44.830;20.460;2024-02-15T07:42:56;18.70;;;10.30;;
84993;SDS011;75309;44.830;20.460;2024-02-15T07:45:25;19.80;;;11.40;;
84993;SDS011;75309;44.830;20.460;2024-02-15T07:47:54;17.20;;;9.50;;
84993;SDS011;75309;44.830;20.460;2024-02-15T07:50:22;20.30;;;10.80;;
84993;SDS011;75309;44.830;20.460;2024-02-15T07:52:50;22.50;;;11.00;;
84993;SDS011;75309;44.830;20.460;2024-02-15T07:55:19;25.10;;;13.10;;
84993;SDS011;75309;44.830;20.460;2024-02-15T07:57:46;23.20;;;11.70;;
84993;SDS011;75309;44.830;20.460;2024-02-15T08:00:16;25.10;;;11.30;;
84993;SDS011;75309;44.830;20.460;2024-02-15T08:02:47;27.90;;;13.00;;
84993;SDS011;75309;44.830;20.460;2024-02-15T08:05:15;23.00;;;13.10;;
84993;SDS011;75309;44.830;20.460;2024-02-15T08:10:12;23.30;;;12.10;;
84993;SDS011;75309;44.830;20.460;2024-02-15T08:12:42;21.50;;;12.20;;
84993;SDS011;75309;44.830;20.460;2024-02-15T08:15:11;18.50;;;11.00;;
84993;SDS011;75309;44.830;20.460;2024-02-15T08:17:43;21.50;;;12.30;;
84993;SDS011;75309;44.830;20.460;2024-02-15T08:20:16;21.90;;;12.00;;
84993;SDS011;75309;44.830;20.460;2024-02-15T08:22:49;23.90;;;12.60;;
84993;SDS011;75309;44.830;20.460;2024-02-15T08:27:47;21.00;;;11.70;;
84993;SDS011;75309;44.830;20.460;2024-02-15T08:30:18;19.80;;;11.00;;
84993;SDS011;75309;44.830;20.460;2024-02-15T08:32:51;23.10;;;12.80;;
84993;SDS011;75309;44.830;20.460;2024-02-15T08:35:23;23.60;;;11.90;;
84993;SDS011;75309;44.830;20.460;2024-02-15T08:37:51;22.00;;;12.00;;
84993;SDS011;75309;44.830;20.460;2024-02-15T08:40:20;17.80;;;9.20;;
84993;SDS011;75309;44.830;20.460;2024-02-15T08:42:53;16.70;;;8.80;;
84993;SDS011;75309;44.830;20.460;2024-02-15T08:45:21;17.30;;;10.80;;
84993;SDS011;75309;44.830;20.460;2024-02-15T08:47:51;18.10;;;10.20;;
84993;SDS011;75309;44.830;20.460;2024-02-15T08:50:22;19.30;;;10.20;;
84993;SDS011;75309;44.830;20.460;2024-02-15T08:52:51;19.20;;;10.70;;
84993;SDS011;75309;44.830;20.460;2024-02-15T08:57:52;19.80;;;11.10;;
84993;SDS011;75309;44.830;20.460;2024-02-15T09:00:21;21.00;;;11.00;;
84993;SDS011;75309;44.830;20.460;2024-02-15T09:02:50;21.10;;;11.80;;
84993;SDS011;75309;44.830;20.460;2024-02-15T09:05:19;17.30;;;10.50;;
84993;SDS011;75309;44.830;20.460;2024-02-15T09:07:50;22.00;;;12.40;;
84993;SDS011;75309;44.830;20.460;2024-02-15T09:10:19;19.80;;;11.10;;
84993;SDS011;75309;44.830;20.460;2024-02-15T09:12:50;22.60;;;11.40;;
84993;SDS011;75309;44.830;20.460;2024-02-15T09:15:18;19.80;;;11.20;;
84993;SDS011;75309;44.830;20.460;2024-02-15T09:17:46;22.80;;;10.30;;
84993;SDS011;75309;44.830;20.460;2024-02-15T09:20:16;20.00;;;10.90;;
84993;SDS011;75309;44.830;20.460;2024-02-15T09:22:48;22.50;;;10.90;;
84993;SDS011;75309;44.830;20.460;2024-02-15T09:25:17;20.20;;;10.10;;
84993;SDS011;75309;44.830;20.460;2024-02-15T09:27:47;19.10;;;10.60;;
84993;SDS011;75309;44.830;20.460;2024-02-15T09:30:16;22.00;;;11.20;;
84993;SDS011;75309;44.830;20.460;2024-02-15T09:32:45;21.80;;;10.90;;
84993;SDS011;75309;44.830;20.460;2024-02-15T09:35:13;17.70;;;10.50;;
84993;SDS011;75309;44.830;20.460;2024-02-15T09:37:48;22.90;;;10.60;;
84993;SDS011;75309;44.830;20.460;2024-02-15T09:42:47;22.50;;;10.70;;
84993;SDS011;75309;44.830;20.460;2024-02-15T09:45:15;21.10;;;10.20;;
84993;SDS011;75309;44.830;20.460;2024-02-15T09:47:45;21.20;;;11.30;;
84993;SDS011;75309;44.830;20.460;2024-02-15T09:50:14;21.40;;;11.70;;
84993;SDS011;75309;44.830;20.460;2024-02-15T09:52:46;18.70;;;10.10;;
84993;SDS011;75309;44.830;20.460;2024-02-15T09:55:19;17.70;;;10.10;;
84993;SDS011;75309;44.830;20.460;2024-02-15T09:57:51;20.90;;;11.10;;
84993;SDS011;75309;44.830;20.460;2024-02-15T10:00:20;20.00;;;10.30;;
84993;SDS011;75309;44.830;20.460;2024-02-15T10:02:52;21.50;;;10.90;;
84993;SDS011;75309;44.830;20.460;2024-02-15T10:05:24;19.50;;;10.60;;
84993;SDS011;75309;44.830;20.460;2024-02-15T10:07:52;21.80;;;11.10;;
84993;SDS011;75309;44.830;20.460;2024-02-15T10:10:20;19.00;;;10.70;;
84993;SDS011;75309;44.830;20.460;2024-02-15T10:12:50;19.60;;;10.10;;
84993;SDS011;75309;44.830;20.460;2024-02-15T10:15:28;20.90;;;10.20;;
84993;SDS011;75309;44.830;20.460;2024-02-15T10:18:02;18.60;;;9.60;;
84993;SDS011;75309;44.830;20.460;2024-02-15T10:20:33;16.30;;;8.60;;
84993;SDS011;75309;44.830;20.460;2024-02-15T10:23:13;21.00;;;10.90;;
84993;SDS011;75309;44.830;20.460;2024-02-15T10:25:46;21.60;;;12.60;;
84993;SDS011;75309;44.830;20.460;2024-02-15T10:28:20;22.00;;;11.70;;
84993;SDS011;75309;44.830;20.460;2024-02-15T10:30:51;16.00;;;8.80;;
84993;SDS011;75309;44.830;20.460;2024-02-15T10:33:27;20.70;;;11.00;;
84993;SDS011;75309;44.830;20.460;2024-02-15T10:38:37;19.10;;;10.00;;
84993;SDS011;75309;44.830;20.460;2024-02-15T10:41:06;16.00;;;9.10;;
84993;SDS011;75309;44.830;20.460;2024-02-15T10:43:39;18.30;;;10.50;;
84993;SDS011;75309;44.830;20.460;2024-02-15T10:46:12;17.90;;;9.90;;
84993;SDS011;75309;44.830;20.460;2024-02-15T10:48:40;15.60;;;8.90;;
84993;SDS011;75309;44.830;20.460;2024-02-15T10:51:12;22.00;;;11.40;;
84993;SDS011;75309;44.830;20.460;2024-02-15T10:53:47;17.00;;;8.40;;
84993;SDS011;75309;44.830;20.460;2024-02-15T10:56:26;17.60;;;9.10;;
84993;SDS011;75309;44.830;20.460;2024-02-15T10:59:10;17.20;;;10.00;;
84993;SDS011;75309;44.830;20.460;2024-02-15T11:01:44;19.30;;;10.10;;
84993;SDS011;75309;44.830;20.460;2024-02-15T11:04:16;15.90;;;8.20;;
84993;SDS011;75309;44.830;20.460;2024-02-15T11:06:49;17.10;;;9.30;;
84993;SDS011;75309;44.830;20.460;2024-02-15T11:09:21;17.00;;;9.80;;
84993;SDS011;75309;44.830;20.460;2024-02-15T11:11:50;17.80;;;9.30;;
84993;SDS011;75309;44.830;20.460;2024-02-15T11:14:25;17.30;;;9.60;;
84993;SDS011;75309;44.830;20.460;2024-02-15T11:16:57;19.80;;;10.00;;
84993;SDS011;75309;44.830;20.460;2024-02-15T11:22:00;21.00;;;11.60;;
84993;SDS011;75309;44.830;20.460;2024-02-15T11:24:32;17.40;;;8.40;;
84993;SDS011;75309;44.830;20.460;2024-02-15T11:27:03;15.60;;;8.10;;
84993;SDS011;75309;44.830;20.460;2024-02-15T11:35:08;15.40;;;9.20;;
84993;SDS011;75309;44.830;20.460;2024-02-15T11:40:24;14.40;;;8.20;;
84993;SDS011;75309;44.830;20.460;2024-02-15T11:43:58;17.20;;;9.30;;
84993;SDS011;75309;44.830;20.460;2024-02-15T11:46:25;14.50;;;6.80;;
84993;SDS011;75309;44.830;20.460;2024-02-15T11:48:58;10.40;;;5.10;;
84993;SDS011;75309;44.830;20.460;2024-02-15T11:51:33;9.60;;;5.30;;
84993;SDS011;75309;44.830;20.460;2024-02-15T11:54:11;9.40;;;5.10;;
84993;SDS011;75309;44.830;20.460;2024-02-15T11:59:16;10.90;;;5.50;;
84993;SDS011;75309;44.830;20.460;2024-02-15T12:02:11;9.10;;;4.70;;
84993;SDS011;75309;44.830;20.460;2024-02-15T12:04:58;9.70;;;5.20;;
84993;SDS011;75309;44.830;20.460;2024-02-15T12:07:47;10.90;;;5.60;;
84993;SDS011;75309;44.830;20.460;2024-02-15T12:10:44;9.30;;;4.90;;
84993;SDS011;75309;44.830;20.460;2024-02-15T12:13:43;8.90;;;4.20;;
84993;SDS011;75309;44.830;20.460;2024-02-15T12:16:31;10.60;;;5.60;;
84993;SDS011;75309;44.830;20.460;2024-02-15T12:19:17;10.20;;;4.60;;
84993;SDS011;75309;44.830;20.460;2024-02-15T12:24:14;10.10;;;4.80;;
84993;SDS011;75309;44.830;20.460;2024-02-15T12:26:45;8.60;;;3.70;;
84993;SDS011;75309;44.830;20.460;2024-02-15T12:29:17;12.70;;;5.40;;
84993;SDS011;75309;44.830;20.460;2024-02-15T12:31:46;10.10;;;5.00;;
84993;SDS011;75309;44.830;20.460;2024-02-15T12:34:14;12.40;;;5.70;;
84993;SDS011;75309;44.830;20.460;2024-02-15T12:36:44;7.80;;;3.80;;
84993;SDS011;75309;44.830;20.460;2024-02-15T12:39:13;10.50;;;5.10;;
84993;SDS011;75309;44.830;20.460;2024-02-15T12:41:48;10.90;;;4.70;;
84993;SDS011;75309;44.830;20.460;2024-02-15T12:44:19;9.80;;;5.00;;
84993;SDS011;75309;44.830;20.460;2024-02-15T12:46:55;11.20;;;6.00;;
84993;SDS011;75309;44.830;20.460;2024-02-15T12:54:22;9.00;;;3.80;;
84993;SDS011;75309;44.830;20.460;2024-02-15T12:56:52;10.10;;;4.50;;
84993;SDS011;75309;44.830;20.460;2024-02-15T12:59:41;10.20;;;4.80;;
84993;SDS011;75309;44.830;20.460;2024-02-15T13:02:10;11.30;;;5.10;;
84993;SDS011;75309;44.830;20.460;2024-02-15T13:04:42;12.00;;;6.10;;
84993;SDS011;75309;44.830;20.460;2024-02-15T13:07:10;7.00;;;3.40;;
84993;SDS011;75309;44.830;20.460;2024-02-15T13:12:08;8.40;;;4.40;;
84993;SDS011;75309;44.830;20.460;2024-02-15T13:17:05;9.00;;;4.30;;
84993;SDS011;75309;44.830;20.460;2024-02-15T13:19:34;8.70;;;3.90;;
84993;SDS011;75309;44.830;20.460;2024-02-15T13:22:03;9.00;;;4.50;;
84993;SDS011;75309;44.830;20.460;2024-02-15T13:24:32;9.70;;;4.20;;
84993;SDS011;75309;44.830;20.460;2024-02-15T13:27:00;8.90;;;4.30;;
84993;SDS011;75309;44.830;20.460;2024-02-15T13:29:28;10.90;;;4.20;;
84993;SDS011;75309;44.830;20.460;2024-02-15T13:34:27;9.30;;;4.20;;
84993;SDS011;75309;44.830;20.460;2024-02-15T13:36:56;8.60;;;3.70;;
84993;SDS011;75309;44.830;20.460;2024-02-15T13:39:24;11.60;;;4.70;;
84993;SDS011;75309;44.830;20.460;2024-02-15T13:42:00;9.70;;;5.00;;
84993;SDS011;75309;44.830;20.460;2024-02-15T13:44:29;8.30;;;3.10;;
84993;SDS011;75309;44.830;20.460;2024-02-15T13:46:58;10.60;;;4.90;;
84993;SDS011;75309;44.830;20.460;2024-02-15T13:49:26;10.00;;;4.30;;
84993;SDS011;75309;44.830;20.460;2024-02-15T13:51:59;11.20;;;5.30;;
84993;SDS011;75309;44.830;20.460;2024-02-15T13:54:31;8.40;;;4.50;;
84993;SDS011;75309;44.830;20.460;2024-02-15T13:57:00;10.40;;;4.90;;
84993;SDS011;75309;44.830;20.460;2024-02-15T13:59:29;10.70;;;5.20;;
84993;SDS011;75309;44.830;20.460;2024-02-15T14:01:58;9.70;;;4.70;;
84993;SDS011;75309;44.830;20.460;2024-02-15T14:04:26;9.60;;;4.70;;
84993;SDS011;75309;44.830;20.460;2024-02-15T14:06:54;10.10;;;4.60;;
84993;SDS011;75309;44.830;20.460;2024-02-15T14:09:24;8.80;;;4.40;;
84993;SDS011;75309;44.830;20.460;2024-02-15T14:11:54;7.90;;;4.10;;
84993;SDS011;75309;44.830;20.460;2024-02-15T14:14:22;9.00;;;4.60;;
84993;SDS011;75309;44.830;20.460;2024-02-15T14:16:50;9.00;;;4.10;;
84993;SDS011;75309;44.830;20.460;2024-02-15T14:19:18;9.80;;;4.20;;
84993;SDS011;75309;44.830;20.460;2024-02-15T14:21:47;9.30;;;4.90;;
84993;SDS011;75309;44.830;20.460;2024-02-15T14:24:15;10.80;;;4.60;;
84993;SDS011;75309;44.830;20.460;2024-02-15T14:26:47;8.90;;;3.70;;
84993;SDS011;75309;44.830;20.460;2024-02-15T14:29:15;9.90;;;4.00;;
84993;SDS011;75309;44.830;20.460;2024-02-15T14:31:52;8.00;;;3.80;;
84993;SDS011;75309;44.830;20.460;2024-02-15T14:34:39;9.50;;;5.10;;
84993;SDS011;75309;44.830;20.460;2024-02-15T14:37:09;8.20;;;4.10;;
84993;SDS011;75309;44.830;20.460;2024-02-15T14:39:37;8.70;;;3.70;;
84993;SDS011;75309;44.830;20.460;2024-02-15T14:42:05;8.00;;;3.50;;
84993;SDS011;75309;44.830;20.460;2024-02-15T14:44:45;7.20;;;2.90;;
84993;SDS011;75309;44.830;20.460;2024-02-15T14:47:13;8.50;;;3.60;;
84993;SDS011;75309;44.830;20.460;2024-02-15T14:49:41;7.50;;;4.00;;
84993;SDS011;75309;44.830;20.460;2024-02-15T14:52:09;7.90;;;3.60;;
84993;SDS011;75309;44.830;20.460;2024-02-15T14:54:37;8.30;;;4.10;;
84993;SDS011;75309;44.830;20.460;2024-02-15T14:57:06;8.90;;;4.00;;
84993;SDS011;75309;44.830;20.460;2024-02-15T14:59:34;8.60;;;3.60;;
84993;SDS011;75309;44.830;20.460;2024-02-15T15:02:03;11.00;;;4.90;;
84993;SDS011;75309;44.830;20.460;2024-02-15T15:04:39;41.90;;;22.60;;
84993;SDS011;75309;44.830;20.460;2024-02-15T15:07:25;11.80;;;5.50;;
84993;SDS011;75309;44.830;20.460;2024-02-15T15:10:12;10.50;;;4.50;;
84993;SDS011;75309;44.830;20.460;2024-02-15T15:12:58;10.90;;;4.60;;
84993;SDS011;75309;44.830;20.460;2024-02-15T15:15:26;10.80;;;4.70;;
84993;SDS011;75309;44.830;20.460;2024-02-15T15:17:55;10.30;;;5.10;;
84993;SDS011;75309;44.830;20.460;2024-02-15T15:20:23;12.00;;;5.50;;
84993;SDS011;75309;44.830;20.460;2024-02-15T15:22:53;8.50;;;4.50;;
84993;SDS011;75309;44.830;20.460;2024-02-15T15:25:24;8.70;;;3.70;;
84993;SDS011;75309;44.830;20.460;2024-02-15T15:27:55;8.40;;;3.90;;